Time;durP1;ratioP1;P1;durP2;ratioP2;P2;SDS_P1;SDS_P2;PMS_P1;PMS_P2;Temp;Humidity;BMP_temperature;BMP_pressure;BME280_temperature;BME280_humidity;BME280_pressure;Samples;Min_cycle;Max_cycle;Signal;HPM_P1;HPM_P2
2023/07/21 00:01:08;;;;;;;1999.90;999.90;;;15.10;99.90;;;;;;4806515;29;20422;-70
2023/07/21 00:03:35;;;;;;;1999.90;999.90;;;15.10;99.90;;;;;;4806905;29;20051;-70
2023/07/21 00:06:06;;;;;;;1999.90;999.90;;;15.10;99.90;;;;;;4807835;29;20050;-69
2023/07/21 00:08:35;;;;;;;1999.90;999.90;;;15.00;99.90;;;;;;4807527;29;20561;-70
2023/07/21 00:11:02;;;;;;;1999.90;999.90;;;15.00;99.90;;;;;;4807855;29;20196;-70
2023/07/21 00:13:27;;;;;;;1999.90;999.90;;;15.00;99.90;;;;;;4807054;29;20387;-70
2023/07/21 00:15:54;;;;;;;1999.90;999.90;;;14.90;99.90;;;;;;4806768;29;20047;-70
2023/07/21 00:18:21;;;;;;;1999.90;999.90;;;14.90;99.90;;;;;;4807616;29;20054;-70
2023/07/21 00:20:47;;;;;;;1999.90;999.90;;;14.90;99.90;;;;;;4807523;29;20046;-70
2023/07/21 00:23:14;;;;;;;1999.90;999.90;;;14.80;99.90;;;;;;4807774;29;20396;-70
2023/07/21 00:25:40;;;;;;;1999.90;999.90;;;14.80;99.90;;;;;;4806803;29;20097;-70
2023/07/21 00:28:06;;;;;;;1999.90;999.90;;;14.80;99.90;;;;;;4807132;29;20086;-70
2023/07/21 00:30:33;;;;;;;1999.90;999.90;;;14.80;99.90;;;;;;4807386;29;20047;-70
2023/07/21 00:32:59;;;;;;;1999.90;999.90;;;14.80;99.90;;;;;;4807388;29;20058;-70
2023/07/21 00:35:24;;;;;;;1999.90;999.90;;;14.80;99.90;;;;;;4807876;29;20055;-71
2023/07/21 00:37:51;;;;;;;1999.90;999.90;;;14.70;99.90;;;;;;4807274;29;20382;-71
2023/07/21 00:40:19;;;;;;;1999.90;999.90;;;14.70;99.90;;;;;;4806370;29;20103;-70
2023/07/21 00:42:47;;;;;;;1999.90;999.90;;;14.70;99.90;;;;;;4807146;29;20054;-71
2023/07/21 00:45:14;;;;;;;1999.90;999.90;;;14.70;99.90;;;;;;4807188;29;20088;-70
2023/07/21 00:47:41;;;;;;;1999.90;999.90;;;14.70;99.90;;;;;;4807153;29;20066;-70
2023/07/21 00:50:08;;;;;;;1999.90;999.90;;;14.70;99.90;;;;;;4806983;29;20050;-70
2023/07/21 00:52:35;;;;;;;1999.90;999.90;;;14.70;99.90;;;;;;4806952;29;20104;-70
2023/07/21 00:55:01;;;;;;;1999.90;999.90;;;14.60;99.90;;;;;;4806862;29;20618;-69
2023/07/21 00:57:28;;;;;;;1999.90;999.90;;;14.60;99.90;;;;;;4807320;29;20051;-69
2023/07/21 00:59:54;;;;;;;1999.90;999.90;;;14.60;99.90;;;;;;4806697;29;20466;-70
2023/07/21 01:02:21;;;;;;;1999.90;999.90;;;14.60;99.90;;;;;;4807455;29;20055;-70
2023/07/21 01:04:47;;;;;;;1999.90;999.90;;;14.60;99.90;;;;;;4806058;29;20092;-69
2023/07/21 01:07:15;;;;;;;1999.90;999.90;;;14.60;99.90;;;;;;4805824;29;20054;-68
2023/07/21 01:09:42;;;;;;;1999.90;999.90;;;14.50;99.90;;;;;;4807367;29;20086;-69
2023/07/21 01:12:09;;;;;;;1999.90;999.90;;;14.50;99.90;;;;;;4821005;29;20138;-69
2023/07/21 01:14:36;;;;;;;1999.90;999.90;;;14.50;99.90;;;;;;4806564;29;20500;-69
2023/07/21 01:17:03;;;;;;;1999.90;999.90;;;14.40;99.90;;;;;;4820940;29;20054;-69
2023/07/21 01:19:30;;;;;;;1999.90;999.90;;;14.40;99.90;;;;;;4806797;29;20480;-69
2023/07/21 01:22:08;;;;;;;1999.90;999.90;;;14.40;99.90;;;;;;4806818;29;20046;-69
2023/07/21 01:24:42;;;;;;;1999.90;999.90;;;14.30;99.90;;;;;;4820545;29;20050;-69
2023/07/21 01:27:11;;;;;;;1999.90;999.90;;;14.30;99.90;;;;;;4806580;29;20178;-69
2023/07/21 01:29:42;;;;;;;1999.90;999.90;;;14.30;99.90;;;;;;4806261;29;20392;-70
2023/07/21 01:32:10;;;;;;;1999.90;999.90;;;14.20;99.90;;;;;;4806654;29;20045;-69
2023/07/21 01:34:37;;;;;;;1999.90;999.90;;;14.20;99.90;;;;;;4806647;29;20056;-69
2023/07/21 01:37:04;;;;;;;1999.90;999.90;;;14.20;99.90;;;;;;4806626;29;20142;-69
2023/07/21 01:39:34;;;;;;;1999.90;999.90;;;14.20;99.90;;;;;;4805422;29;20055;-70
2023/07/21 01:42:00;;;;;;;1999.90;999.90;;;14.10;99.90;;;;;;4806493;29;20102;-69
2023/07/21 01:44:25;;;;;;;1999.90;999.90;;;14.10;99.90;;;;;;4806259;29;20051;-70
2023/07/21 01:46:52;;;;;;;1999.90;999.90;;;14.10;99.90;;;;;;4806809;29;20051;-70
2023/07/21 01:49:19;;;;;;;1999.90;999.90;;;14.10;99.90;;;;;;4805374;29;20047;-70
2023/07/21 01:51:47;;;;;;;1999.90;999.90;;;14.10;99.90;;;;;;4806424;29;20137;-69
2023/07/21 01:54:33;;;;;;;1999.90;999.90;;;14.10;99.90;;;;;;4805238;29;20147;-69
2023/07/21 01:57:05;;;;;;;1999.90;999.90;;;14.10;99.90;;;;;;4805434;29;20047;-69
2023/07/21 01:59:31;;;;;;;1999.90;999.90;;;14.00;99.90;;;;;;4820180;29;20098;-69
2023/07/21 02:01:57;;;;;;;1999.90;999.90;;;14.00;99.90;;;;;;4806798;29;20151;-69
2023/07/21 02:04:24;;;;;;;1999.90;999.90;;;14.00;99.90;;;;;;4806398;29;20062;-69
2023/07/21 02:06:50;;;;;;;1999.90;999.90;;;13.90;99.90;;;;;;4807064;29;20158;-69
2023/07/21 02:09:16;;;;;;;1999.90;999.90;;;13.90;99.90;;;;;;4806890;29;20485;-69
2023/07/21 02:11:45;;;;;;;1999.90;999.90;;;13.90;99.90;;;;;;4807466;29;20054;-69
2023/07/21 02:14:11;;;;;;;1999.90;999.90;;;13.90;99.90;;;;;;4793977;29;20388;-69
2023/07/21 02:16:40;;;;;;;1999.90;999.90;;;13.80;99.90;;;;;;4809883;29;20050;-70
2023/07/21 02:19:06;;;;;;;1999.90;999.90;;;13.80;99.90;;;;;;4810268;29;20391;-69
2023/07/21 02:21:33;;;;;;;1999.90;999.90;;;13.80;99.90;;;;;;4810378;29;20063;-70
2023/07/21 02:23:59;;;;;;;1999.90;999.90;;;13.70;99.90;;;;;;4809014;29;20138;-69
2023/07/21 02:26:25;;;;;;;1999.90;999.90;;;13.70;99.90;;;;;;4809686;29;20129;-69
2023/07/21 02:28:50;;;;;;;1999.90;999.90;;;13.70;99.90;;;;;;4809251;29;20133;-69
2023/07/21 02:31:16;;;;;;;1999.90;999.90;;;13.60;99.90;;;;;;4809627;29;20050;-70
2023/07/21 02:33:42;;;;;;;1999.90;999.90;;;13.60;99.90;;;;;;4810285;29;20073;-70
2023/07/21 02:36:08;;;;;;;1999.90;999.90;;;13.60;99.90;;;;;;4809480;29;20046;-70
2023/07/21 02:38:33;;;;;;;1999.90;999.90;;;13.60;99.90;;;;;;4809436;29;20058;-70
2023/07/21 02:41:04;;;;;;;1999.90;999.90;;;13.50;99.90;;;;;;4809940;29;20133;-70
2023/07/21 02:43:30;;;;;;;1999.90;999.90;;;13.50;99.90;;;;;;4809572;29;20385;-69
2023/07/21 02:45:56;;;;;;;1999.90;999.90;;;13.50;99.90;;;;;;4809902;29;20055;-69
2023/07/21 02:48:22;;;;;;;1999.90;999.90;;;13.50;99.90;;;;;;4809069;29;20054;-70
2023/07/21 02:50:52;;;;;;;1999.90;999.90;;;13.50;99.90;;;;;;4809178;29;20085;-69
2023/07/21 02:53:19;;;;;;;1999.90;999.90;;;13.50;99.90;;;;;;4809193;29;20043;-69
2023/07/21 02:55:46;;;;;;;1999.90;999.90;;;13.50;99.90;;;;;;4808882;29;20508;-69
2023/07/21 02:58:16;;;;;;;1999.90;999.90;;;13.40;99.90;;;;;;4809162;29;20382;-69
2023/07/21 03:00:42;;;;;;;1999.90;999.90;;;13.40;99.90;;;;;;4807794;29;20058;-69
2023/07/21 03:03:12;;;;;;;1999.90;999.90;;;13.40;99.90;;;;;;4808922;29;20099;-69
2023/07/21 03:05:38;;;;;;;1999.90;999.90;;;13.40;99.90;;;;;;4808730;29;20501;-69
2023/07/21 03:08:04;;;;;;;1999.90;999.90;;;13.40;99.90;;;;;;4808948;29;20073;-69
2023/07/21 03:10:30;;;;;;;1999.90;999.90;;;13.40;99.90;;;;;;4807987;29;20058;-69
2023/07/21 03:12:56;;;;;;;1999.90;999.90;;;13.40;99.90;;;;;;4808918;29;20130;-69
2023/07/21 03:15:22;;;;;;;1999.90;999.90;;;13.40;99.90;;;;;;4808860;29;20051;-69
2023/07/21 03:17:47;;;;;;;1999.90;999.90;;;13.40;99.90;;;;;;4808789;29;20055;-69
2023/07/21 03:20:14;;;;;;;1999.90;999.90;;;13.40;99.90;;;;;;4807559;29;20053;-70
2023/07/21 03:22:44;;;;;;;1999.90;999.90;;;13.30;99.90;;;;;;4807646;29;20113;-70
2023/07/21 03:25:13;;;;;;;1999.90;999.90;;;13.40;99.90;;;;;;4808681;29;20050;-69
2023/07/21 03:27:39;;;;;;;1999.90;999.90;;;13.30;99.90;;;;;;4808616;29;20089;-70
2023/07/21 03:30:06;;;;;;;1999.90;999.90;;;13.30;99.90;;;;;;4809071;29;20071;-69
2023/07/21 03:32:32;;;;;;;1999.90;999.90;;;13.30;99.90;;;;;;4809021;29;20051;-69
2023/07/21 03:34:57;;;;;;;1999.90;999.90;;;13.20;99.90;;;;;;4808271;29;20046;-69
2023/07/21 03:37:25;;;;;;;1999.90;999.90;;;13.20;99.90;;;;;;4808532;29;20065;-70
2023/07/21 03:39:51;;;;;;;1999.90;999.90;;;13.20;99.90;;;;;;4807533;29;20137;-69
2023/07/21 03:42:16;;;;;;;1999.90;999.90;;;13.10;99.90;;;;;;4807286;29;20153;-70
2023/07/21 03:44:47;;;;;;;1999.90;999.90;;;13.10;99.90;;;;;;4807995;29;20055;-69
2023/07/21 03:47:13;;;;;;;1999.90;999.90;;;13.10;99.90;;;;;;4808253;29;20054;-69
2023/07/21 03:49:38;;;;;;;1999.90;999.90;;;13.10;99.90;;;;;;4808667;29;20055;-69
2023/07/21 03:52:04;;;;;;;1999.90;999.90;;;13.10;99.90;;;;;;4806958;29;20055;-70
2023/07/21 03:54:30;;;;;;;1999.90;999.90;;;13.10;99.90;;;;;;4808603;29;20099;-69
2023/07/21 03:56:55;;;;;;;1999.90;999.90;;;13.10;99.90;;;;;;4808592;29;20268;-70
2023/07/21 03:59:21;;;;;;;1999.90;999.90;;;13.10;99.90;;;;;;4807720;29;20066;-70
2023/07/21 04:01:47;;;;;;;1999.90;999.90;;;13.10;99.90;;;;;;4807256;29;20115;-70
2023/07/21 04:04:13;;;;;;;1999.90;999.90;;;13.10;99.90;;;;;;4807664;29;20046;-70
2023/07/21 04:06:38;;;;;;;1999.90;999.90;;;13.10;99.90;;;;;;4791424;29;20156;-70
2023/07/21 04:09:04;;;;;;;1999.90;999.90;;;13.10;99.90;;;;;;4808345;29;20054;-70
2023/07/21 04:11:30;;;;;;;1999.90;999.90;;;13.10;99.90;;;;;;4807829;29;20051;-70
2023/07/21 04:13:59;;;;;;;1999.90;999.90;;;13.10;99.90;;;;;;4808299;29;20050;-70
2023/07/21 04:16:25;;;;;;;1999.90;999.90;;;13.20;99.90;;;;;;4808241;29;20055;-71
2023/07/21 04:18:51;;;;;;;1999.90;999.90;;;13.20;99.90;;;;;;4807714;29;20051;-70
2023/07/21 04:21:16;;;;;;;1999.90;999.90;;;13.20;99.90;;;;;;4808137;29;20055;-69
2023/07/21 04:23:42;;;;;;;1999.90;999.90;;;13.20;99.90;;;;;;4821574;29;20054;-70
2023/07/21 04:26:08;;;;;;;1999.90;999.90;;;13.20;99.90;;;;;;4807536;29;20056;-69
2023/07/21 04:28:34;;;;;;;1999.90;999.90;;;13.20;99.90;;;;;;4807548;29;20134;-70
2023/07/21 04:31:00;;;;;;;1999.90;999.90;;;13.20;99.90;;;;;;4821468;29;20115;-70
2023/07/21 04:33:25;;;;;;;1999.90;999.90;;;13.20;99.90;;;;;;4807460;29;20054;-70
2023/07/21 04:35:51;;;;;;;1999.90;999.90;;;13.20;99.90;;;;;;4806504;29;20137;-70
2023/07/21 04:38:17;;;;;;;1999.90;999.90;;;13.30;99.90;;;;;;4807345;29;20054;-70
2023/07/21 04:40:46;;;;;;;1999.90;999.90;;;13.30;99.90;;;;;;4806460;29;20521;-69
2023/07/21 04:43:12;;;;;;;1999.90;999.90;;;13.40;99.90;;;;;;4807202;29;20176;-70
2023/07/21 04:45:43;;;;;;;1999.90;999.90;;;13.40;99.90;;;;;;4807281;29;20054;-69
2023/07/21 04:48:09;;;;;;;1999.90;999.90;;;13.40;99.90;;;;;;4807156;29;20130;-69
2023/07/21 04:50:35;;;;;;;1999.90;999.90;;;13.50;99.90;;;;;;4807096;29;20055;-70
2023/07/21 04:53:04;;;;;;;1999.90;999.90;;;13.50;99.90;;;;;;4807085;29;20049;-70
2023/07/21 04:55:29;;;;;;;1999.90;999.90;;;13.50;99.90;;;;;;4807077;29;20058;-70
2023/07/21 04:57:55;;;;;;;1999.90;999.90;;;13.60;99.90;;;;;;4805858;29;20047;-69
2023/07/21 05:00:21;;;;;;;1999.90;999.90;;;13.60;99.90;;;;;;4805774;29;20508;-69
2023/07/21 05:02:47;;;;;;;1999.90;999.90;;;13.70;99.90;;;;;;4805625;29;20066;-69
2023/07/21 05:05:12;;;;;;;1999.90;999.90;;;13.70;99.90;;;;;;4820925;29;20043;-69
2023/07/21 05:07:38;;;;;;;1999.90;999.90;;;13.80;99.90;;;;;;4805748;29;20058;-69
2023/07/21 05:10:05;;;;;;;1999.90;999.90;;;13.80;99.90;;;;;;4806809;29;20141;-69
2023/07/21 05:12:31;;;;;;;1999.90;999.90;;;13.80;99.90;;;;;;4807373;29;20184;-69
2023/07/21 05:14:57;;;;;;;1999.90;999.90;;;13.90;99.90;;;;;;4805831;29;20059;-70
2023/07/21 05:17:23;;;;;;;1999.90;999.90;;;13.90;99.90;;;;;;4805710;29;20070;-71
2023/07/21 05:19:49;;;;;;;1999.90;999.90;;;13.90;99.90;;;;;;4805547;29;20062;-71
2023/07/21 05:22:14;;;;;;;1999.90;999.90;;;14.00;99.90;;;;;;4805399;29;20043;-72
2023/07/21 05:24:40;;;;;;;1999.90;999.90;;;14.00;99.90;;;;;;4805798;29;20055;-72
2023/07/21 05:27:07;;;;;;;1999.90;999.90;;;14.00;99.90;;;;;;4806669;29;20046;-71
2023/07/21 05:29:34;;;;;;;1999.90;999.90;;;14.10;99.90;;;;;;4806701;29;20062;-72
2023/07/21 05:32:01;;;;;;;1999.90;999.90;;;14.10;99.90;;;;;;4806668;29;20094;-71
2023/07/21 05:34:26;;;;;;;1999.90;999.90;;;14.20;99.90;;;;;;4806711;29;20058;-70
2023/07/21 05:36:52;;;;;;;1999.90;999.90;;;14.30;99.90;;;;;;4805457;29;20108;-71
2023/07/21 05:39:18;;;;;;;1999.90;999.90;;;14.30;99.90;;;;;;4806617;29;20084;-71
2023/07/21 05:41:43;;;;;;;1999.90;999.90;;;14.30;99.90;;;;;;4806530;29;20164;-71
2023/07/21 05:44:12;;;;;;;1999.90;999.90;;;14.40;99.90;;;;;;4807063;29;20058;-71
2023/07/21 05:46:39;;;;;;;1999.90;999.90;;;14.40;99.90;;;;;;4793547;29;20127;-71
2023/07/21 05:49:06;;;;;;;1999.90;999.90;;;14.40;99.90;;;;;;4812510;29;20065;-71
2023/07/21 05:51:32;;;;;;;1999.90;999.90;;;14.50;99.90;;;;;;4812470;29;20180;-71
2023/07/21 05:53:57;;;;;;;1999.90;999.90;;;14.60;99.90;;;;;;4813014;29;20054;-71
2023/07/21 05:56:23;;;;;;;1999.90;999.90;;;14.60;99.90;;;;;;4812454;29;20054;-71
2023/07/21 05:58:49;;;;;;;1999.90;999.90;;;14.70;99.90;;;;;;4812937;29;20057;-71
2023/07/21 06:01:14;;;;;;;1999.90;999.90;;;14.70;99.90;;;;;;4813109;29;20154;-71
2023/07/21 06:03:40;;;;;;;1999.90;999.90;;;14.80;99.90;;;;;;4811653;29;20465;-70
2023/07/21 06:06:06;;;;;;;1999.90;999.90;;;14.80;99.90;;;;;;4812003;29;20058;-70
2023/07/21 06:08:34;;;;;;;1999.90;999.90;;;14.90;99.90;;;;;;4812524;29;20053;-71
2023/07/21 06:11:00;;;;;;;1999.90;999.90;;;14.90;99.90;;;;;;4811637;29;20046;-71
2023/07/21 06:13:29;;;;;;;1999.90;999.90;;;15.00;99.90;;;;;;4812257;29;20102;-72
2023/07/21 06:15:58;;;;;;;1999.90;999.90;;;15.00;99.90;;;;;;4812235;29;20142;-70
2023/07/21 06:18:24;;;;;;;1999.90;999.90;;;15.00;99.90;;;;;;4812686;29;20055;-70
2023/07/21 06:20:53;;;;;;;1999.90;999.90;;;15.00;99.90;;;;;;4812063;29;20065;-70
2023/07/21 06:23:19;;;;;;;1999.90;999.90;;;15.10;99.90;;;;;;4811713;29;20492;-71
2023/07/21 06:25:45;;;;;;;1999.90;999.90;;;15.10;99.90;;;;;;4812098;29;20059;-70
2023/07/21 06:28:12;;;;;;;1999.90;999.90;;;15.20;99.90;;;;;;4812048;29;20534;-70
2023/07/21 06:30:38;;;;;;;1999.90;999.90;;;15.20;99.90;;;;;;4812101;29;20101;-70
2023/07/21 06:33:07;;;;;;;1999.90;999.90;;;15.20;99.90;;;;;;4825896;29;20086;-71
2023/07/21 06:35:35;;;;;;;1999.90;999.90;;;15.30;99.90;;;;;;4812043;29;20066;-70
2023/07/21 06:38:01;;;;;;;1999.90;999.90;;;15.30;99.90;;;;;;4811986;29;20051;-70
2023/07/21 06:40:27;;;;;;;1999.90;999.90;;;15.40;99.90;;;;;;4812423;29;20047;-70
2023/07/21 06:42:52;;;;;;;1999.90;999.90;;;15.40;99.90;;;;;;4811825;29;20061;-70
2023/07/21 06:45:18;;;;;;;1999.90;999.90;;;15.40;99.90;;;;;;4812198;29;20116;-71
2023/07/21 06:47:44;;;;;;;1999.90;999.90;;;15.50;99.90;;;;;;4812414;29;20059;-70
2023/07/21 06:50:10;;;;;;;1999.90;999.90;;;15.50;99.90;;;;;;4812407;29;20098;-71
2023/07/21 06:52:36;;;;;;;1999.90;999.90;;;15.60;99.90;;;;;;4825801;29;20054;-70
2023/07/21 06:55:02;;;;;;;1999.90;999.90;;;15.60;99.90;;;;;;4812062;29;20183;-70
2023/07/21 06:57:28;;;;;;;1999.90;999.90;;;15.60;99.90;;;;;;4811012;29;20058;-71
2023/07/21 06:59:54;;;;;;;1999.90;999.90;;;15.70;99.90;;;;;;4808735;29;20576;-71
2023/07/21 07:02:19;;;;;;;1999.90;999.90;;;15.70;99.90;;;;;;4809755;29;20054;-71
2023/07/21 07:04:47;;;;;;;1999.90;999.90;;;15.80;99.90;;;;;;4808930;29;20047;-70
2023/07/21 07:07:14;;;;;;;1999.90;999.90;;;15.90;99.90;;;;;;4809268;29;20057;-71
2023/07/21 07:09:39;;;;;;;1999.90;999.90;;;15.90;99.90;;;;;;4807770;29;20147;-71
2023/07/21 07:12:07;;;;;;;1999.90;999.90;;;16.00;99.90;;;;;;4808026;29;20097;-70
2023/07/21 07:14:33;;;;;;;1999.90;999.90;;;16.00;99.90;;;;;;4808905;29;20130;-70
2023/07/21 07:16:59;;;;;;;1999.90;999.90;;;16.00;99.90;;;;;;4808509;29;20172;-70
2023/07/21 07:19:25;;;;;;;1999.90;999.90;;;16.10;99.90;;;;;;4807863;29;20058;-70
2023/07/21 07:21:51;;;;;;;1999.90;999.90;;;16.20;99.90;;;;;;4808597;29;20045;-70
2023/07/21 07:24:17;;;;;;;1999.90;999.90;;;16.20;99.90;;;;;;4808930;29;20369;-70
2023/07/21 07:26:42;;;;;;;1999.90;999.90;;;16.20;99.90;;;;;;4808613;29;20049;-70
2023/07/21 07:29:08;;;;;;;1999.90;999.90;;;16.30;99.90;;;;;;4808628;29;20061;-71
2023/07/21 07:31:36;;;;;;;1999.90;999.90;;;16.30;99.90;;;;;;4808425;29;20059;-70
2023/07/21 07:34:03;;;;;;;1999.90;999.90;;;16.40;99.90;;;;;;4808016;29;20134;-71
2023/07/21 07:36:29;;;;;;;1999.90;999.90;;;16.40;99.90;;;;;;4808577;29;20087;-71
2023/07/21 07:38:54;;;;;;;1999.90;999.90;;;16.40;99.90;;;;;;4807591;29;20083;-71
2023/07/21 07:41:20;;;;;;;1999.90;999.90;;;16.50;99.90;;;;;;4807584;29;20111;-71
2023/07/21 07:43:46;;;;;;;1999.90;999.90;;;16.50;99.90;;;;;;4807187;29;20395;-70
2023/07/21 07:46:13;;;;;;;1999.90;999.90;;;16.60;99.90;;;;;;4808901;29;20043;-70
2023/07/21 07:48:38;;;;;;;1999.90;999.90;;;16.60;99.90;;;;;;4808336;29;20050;-70
2023/07/21 07:51:06;;;;;;;1999.90;999.90;;;16.70;99.90;;;;;;4808320;29;20050;-70
2023/07/21 07:53:32;;;;;;;1999.90;999.90;;;16.70;99.90;;;;;;4808322;29;20083;-70
2023/07/21 07:55:58;;;;;;;1999.90;999.90;;;16.80;99.90;;;;;;4807298;29;20055;-71
2023/07/21 07:58:25;;;;;;;1999.90;999.90;;;16.90;99.90;;;;;;4793011;29;20143;-71
2023/07/21 08:00:55;;;;;;;1999.90;999.90;;;16.90;99.90;;;;;;4807716;29;20531;-71
2023/07/21 08:03:21;;;;;;;1999.90;999.90;;;17.00;99.90;;;;;;4808855;29;20130;-71
2023/07/21 08:05:49;;;;;;;1999.90;999.90;;;17.00;99.90;;;;;;4808579;29;20457;-71
2023/07/21 08:08:15;;;;;;;1999.90;999.90;;;17.10;99.90;;;;;;4807281;29;20080;-72
2023/07/21 08:10:41;;;;;;;1999.90;999.90;;;17.20;99.90;;;;;;4807675;29;20058;-71
2023/07/21 08:13:07;;;;;;;1999.90;999.90;;;17.30;99.90;;;;;;4792591;29;20412;-71
2023/07/21 08:15:34;;;;;;;1999.90;999.90;;;17.30;99.90;;;;;;4807226;29;20050;-72
2023/07/21 08:17:59;;;;;;;1999.90;999.90;;;17.40;99.90;;;;;;4807877;29;20054;-70
2023/07/21 08:20:25;;;;;;;1999.90;999.90;;;17.40;99.90;;;;;;4807802;29;20184;-70
2023/07/21 08:22:51;;;;;;;1999.90;999.90;;;17.50;99.90;;;;;;4807289;29;20043;-69
2023/07/21 08:25:19;;;;;;;1999.90;999.90;;;17.50;99.90;;;;;;4806556;29;20055;-70
2023/07/21 08:27:44;;;;;;;1999.90;999.90;;;17.60;99.90;;;;;;4807313;29;20142;-69
2023/07/21 08:30:11;;;;;;;1999.90;999.90;;;17.60;99.90;;;;;;4807360;29;20143;-70
2023/07/21 08:32:38;;;;;;;1999.90;999.90;;;17.70;99.90;;;;;;4807520;29;20046;-69
2023/07/21 08:35:05;;;;;;;1999.90;999.90;;;17.80;99.90;;;;;;4821833;29;20120;-69
2023/07/21 08:37:32;;;;;;;1999.90;999.90;;;17.90;99.90;;;;;;4807441;29;20059;-70
2023/07/21 08:39:57;;;;;;;1999.90;999.90;;;17.90;99.90;;;;;;4807500;29;20115;-68
2023/07/21 08:42:24;;;;;;;1999.90;999.90;;;18.00;99.90;;;;;;4806777;29;20047;-70
2023/07/21 08:44:55;;;;;;;1999.90;999.90;;;18.00;99.90;;;;;;4807085;29;20469;-70
2023/07/21 08:47:22;;;;;;;1999.90;999.90;;;18.00;99.90;;;;;;4807052;29;20054;-70
2023/07/21 08:49:48;;;;;;;1999.90;999.90;;;18.00;99.90;;;;;;4806796;29;20116;-70
2023/07/21 08:52:14;;;;;;;1999.90;999.90;;;18.00;99.90;;;;;;4820735;29;20061;-69
2023/07/21 08:54:40;;;;;;;1999.90;999.90;;;18.10;99.90;;;;;;4806920;29;20058;-70
2023/07/21 08:57:06;;;;;;;1999.90;999.90;;;18.10;99.90;;;;;;4807365;29;20054;-69
2023/07/21 08:59:32;;;;;;;1999.90;999.90;;;18.10;99.90;;;;;;4806312;29;20051;-69
2023/07/21 09:01:58;;;;;;;1999.90;999.90;;;18.10;99.90;;;;;;4806972;29;20074;-69
2023/07/21 09:04:25;;;;;;;1999.90;999.90;;;18.10;99.90;;;;;;4806592;29;20230;-69
2023/07/21 09:06:59;;;;;;;1999.90;999.90;;;18.20;99.90;;;;;;4806424;29;20058;-68
2023/07/21 09:09:27;;;;;;;1999.90;999.90;;;18.20;99.90;;;;;;4806657;29;20085;-69
2023/07/21 09:12:04;;;;;;;1999.90;999.90;;;18.20;99.90;;;;;;4806276;29;20051;-68
2023/07/21 09:14:39;;;;;;;1999.90;999.90;;;18.20;99.90;;;;;;4806874;29;20111;-68
2023/07/21 09:17:07;;;;;;;1999.90;999.90;;;18.30;99.90;;;;;;4806316;29;20062;-68
2023/07/21 09:19:36;;;;;;;1999.90;999.90;;;18.30;99.90;;;;;;4805848;29;20484;-68
2023/07/21 09:22:02;;;;;;;1999.90;999.90;;;18.30;99.90;;;;;;4805717;29;20050;-68
2023/07/21 09:24:28;;;;;;;1999.90;999.90;;;18.40;99.90;;;;;;4806300;29;20054;-68
2023/07/21 09:27:10;;;;;;;1999.90;999.90;;;18.50;99.90;;;;;;4805527;29;20051;-68
2023/07/21 09:29:36;;;;;;;1999.90;999.90;;;18.50;99.90;;;;;;4805295;29;20568;-68
2023/07/21 09:32:09;;;;;;;1999.90;999.90;;;18.50;99.90;;;;;;4805416;29;20100;-68
2023/07/21 09:34:34;;;;;;;;;;;18.50;99.90;;;;;;4807088;29;20102;-68
2023/07/21 09:37:05;;;;;;;1999.90;999.90;;;18.60;99.90;;;;;;4806670;29;19925;-68
2023/07/21 09:39:31;;;;;;;1999.90;999.90;;;18.60;99.90;;;;;;4807238;29;20139;-68
2023/07/21 09:41:56;;;;;;;1999.90;999.90;;;18.60;99.90;;;;;;4805843;29;20099;-68
2023/07/21 09:44:23;;;;;;;1999.90;999.90;;;18.60;99.90;;;;;;4807077;29;20051;-69
2023/07/21 09:46:50;;;;;;;1999.90;999.90;;;18.60;99.90;;;;;;4805648;29;20074;-68
2023/07/21 09:49:15;;;;;;;1999.90;999.90;;;18.70;99.90;;;;;;4790794;29;20133;-69
2023/07/21 09:51:45;;;;;;;1999.90;999.90;;;18.80;99.90;;;;;;4806191;29;20055;-69
2023/07/21 09:54:16;;;;;;;1999.90;999.90;;;18.80;99.90;;;;;;4805482;29;20047;-68
2023/07/21 09:56:44;;;;;;;1999.90;999.90;;;18.90;99.90;;;;;;4805850;29;20134;-68
2023/07/21 09:59:10;;;;;;;1999.90;999.90;;;19.00;99.90;;;;;;4805494;29;20397;-68
2023/07/21 10:01:37;;;;;;;1999.90;999.90;;;19.10;99.90;;;;;;4804907;29;20059;-68
2023/07/21 10:04:03;;;;;;;1999.90;999.90;;;19.20;99.90;;;;;;4805174;29;20047;-67
2023/07/21 10:06:32;;;;;;;1999.90;999.90;;;19.20;99.90;;;;;;4805924;29;20138;-68
2023/07/21 10:08:58;;;;;;;1999.90;999.90;;;19.20;99.90;;;;;;4807068;29;20129;-68
2023/07/21 10:11:24;;;;;;;1999.90;999.90;;;19.30;99.90;;;;;;4806310;29;20062;-68
2023/07/21 10:13:51;;;;;;;1999.90;999.90;;;19.30;99.90;;;;;;4820259;29;20050;-68
2023/07/21 10:16:20;;;;;;;1999.90;999.90;;;19.40;99.90;;;;;;4806342;29;20521;-68
2023/07/21 10:19:07;;;;;;;1999.90;999.90;;;19.50;99.90;;;;;;4806741;29;20062;-68
2023/07/21 10:21:51;;;;;;;1999.90;999.90;;;19.60;99.90;;;;;;4806241;29;20055;-68
2023/07/21 10:24:28;;;;;;;1999.90;999.90;;;19.70;99.90;;;;;;4806179;29;20082;-68
2023/07/21 10:27:00;;;;;;;1999.90;999.90;;;19.80;99.90;;;;;;4805953;29;20543;-68
2023/07/21 10:29:26;;;;;;;;;;;19.80;99.90;;;;;;4807373;29;20158;-68
2023/07/21 10:31:57;;;;;;;1999.90;999.90;;;19.90;99.90;;;;;;4805917;29;20011;-67
2023/07/21 10:34:26;;;;;;;1999.90;999.90;;;19.90;99.90;;;;;;4808865;29;20050;-67
2023/07/21 10:36:52;;;;;;;1999.90;999.90;;;19.90;99.90;;;;;;4810306;29;20104;-68
2023/07/21 10:39:19;;;;;;;1999.90;999.90;;;19.90;99.90;;;;;;4809505;29;20450;-68
2023/07/21 10:41:47;;;;;;;1999.90;999.90;;;19.90;99.90;;;;;;4810019;29;20063;-68
2023/07/21 10:44:12;;;;;;;1999.90;999.90;;;19.90;99.90;;;;;;4809248;29;20051;-68
2023/07/21 10:46:44;;;;;;;1999.90;999.90;;;20.00;99.90;;;;;;4823423;29;20433;-68
2023/07/21 10:49:11;;;;;;;1999.90;999.90;;;20.00;99.90;;;;;;4810198;29;20059;-69
2023/07/21 10:51:41;;;;;;;1999.90;999.90;;;20.10;99.90;;;;;;4809631;29;20271;-68
2023/07/21 10:54:11;;;;;;;1999.90;999.90;;;20.20;99.90;;;;;;4809653;29;20456;-68
2023/07/21 10:56:48;;;;;;;1999.90;999.90;;;20.30;99.90;;;;;;4793391;29;20093;-68
2023/07/21 10:59:16;;;;;;;1999.90;999.90;;;20.30;99.90;;;;;;4823014;29;20376;-68
2023/07/21 11:01:49;;;;;;;1999.90;999.90;;;20.40;99.90;;;;;;4809666;29;20385;-68
2023/07/21 11:04:17;;;;;;;1999.90;999.90;;;20.30;99.90;;;;;;4807941;29;20091;-69
2023/07/21 11:06:45;;;;;;;1999.90;999.90;;;20.30;99.90;;;;;;4793119;29;20055;-68
2023/07/21 11:09:14;;;;;;;1999.90;999.90;;;20.20;99.90;;;;;;4792879;29;20467;-68
2023/07/21 11:11:48;;;;;;;1999.90;999.90;;;20.20;99.90;;;;;;4808805;29;20042;-68
2023/07/21 11:14:16;;;;;;;1999.90;999.90;;;20.10;99.90;;;;;;4808891;29;20090;-68
2023/07/21 11:16:52;;;;;;;1999.90;999.90;;;20.10;99.90;;;;;;4809450;29;20050;-68
2023/07/21 11:19:20;;;;;;;1999.90;999.90;;;20.00;99.90;;;;;;4809085;29;20492;-68
2023/07/21 11:21:49;;;;;;;1999.90;999.90;;;20.00;99.90;;;;;;4807516;29;20070;-69
2023/07/21 11:24:28;;;;;;;1999.90;999.90;;;20.00;99.90;;;;;;4808652;29;20046;-68
2023/07/21 11:26:56;;;;;;;1999.90;999.90;;;20.00;99.90;;;;;;4809309;29;20054;-69
2023/07/21 11:29:24;;;;;;;1999.90;999.90;;;20.00;99.90;;;;;;4808697;29;20492;-67
2023/07/21 11:31:49;;;;;;;1999.90;999.90;;;20.00;99.90;;;;;;4809117;29;20054;-68
2023/07/21 11:34:18;;;;;;;1999.90;999.90;;;20.00;99.90;;;;;;4808513;29;20462;-68
2023/07/21 11:36:46;;;;;;;1999.90;999.90;;;20.00;99.90;;;;;;4808524;29;20124;-68
2023/07/21 11:39:17;;;;;;;1999.90;999.90;;;20.00;99.90;;;;;;4807502;29;20063;-67
2023/07/21 11:41:53;;;;;;;1999.90;999.90;;;19.90;99.90;;;;;;4808238;29;20066;-67
2023/07/21 11:44:30;;;;;;;1999.90;999.90;;;19.90;99.90;;;;;;4806577;29;20061;-68
2023/07/21 11:47:09;;;;;;;1999.90;999.90;;;20.00;99.90;;;;;;4807387;29;20055;-67
2023/07/21 11:49:47;;;;;;;1999.90;999.90;;;20.00;99.90;;;;;;4808415;29;20166;-67
2023/07/21 11:52:24;;;;;;;1999.90;999.90;;;20.10;99.90;;;;;;4808771;29;20138;-68
2023/07/21 11:54:50;;;;;;;1999.90;999.90;;;20.10;99.90;;;;;;4808157;29;20415;-67
2023/07/21 11:57:18;;;;;;;1999.90;999.90;;;20.10;99.90;;;;;;4808147;29;20089;-67
2023/07/21 11:59:44;;;;;;;1999.90;999.90;;;20.10;99.90;;;;;;4807913;29;20055;-67
2023/07/21 12:02:14;;;;;;;1999.90;999.90;;;20.10;99.90;;;;;;4808874;29;20115;-67